Lake Hiawatha, New Jersey
Current Conditions -  °F | °C
As of 12:53 AM on Wednesday 26 Nov 2014 (Local Time) from KCDW Reporting Station
Clear Clear  
Wind Chill: 44°   Ceiling: Unl
Heat Index: 44°   Visibility: 10mi
Dew Point: 30°   Wind: 0mph
Humidity: 58%   Direction: NA
Pressure: 30.16"   Gusts: NA
Location:  40.88°N, 74.38°W
Report Text: KCDW 260553Z 00000KT 10SM CLR 07/M01 A3016 RMK AO2 SLP219 T00671011 10083 20056 51010
Loading
Personal Weather Stations






























Interactive Weather Map New forecast layout! Learn more

10-Day Weather Forecast

Advertisements
Track Severe Weather on mobile